sensor_id;sensor_type;location;lat;lon;timestamp;pressure;altitude;pressure_sealevel;temperature;humidity
60087;BME280;45960;53.630;55.972;2023-05-09T00:00:30;101096.97;;;4.81;43.12
60087;BME280;45960;53.630;55.972;2023-05-09T00:01:32;101097.06;;;4.78;43.21
60087;BME280;45960;53.630;55.972;2023-05-09T00:02:34;101098.78;;;4.79;43.24
60087;BME280;45960;53.630;55.972;2023-05-09T00:03:35;101094.41;;;4.78;43.37
60087;BME280;45960;53.630;55.972;2023-05-09T00:04:36;101097.06;;;4.78;43.33
60087;BME280;45960;53.630;55.972;2023-05-09T00:05:37;101105.91;;;4.77;43.23
60087;BME280;45960;53.630;55.972;2023-05-09T00:06:39;101100.66;;;4.75;43.25
60087;BME280;45960;53.630;55.972;2023-05-09T00:07:40;101104.25;;;4.72;43.36
60087;BME280;45960;53.630;55.972;2023-05-09T00:08:41;101107.81;;;4.71;43.55
60087;BME280;45960;53.630;55.972;2023-05-09T00:09:42;101103.44;;;4.70;43.51
60087;BME280;45960;53.630;55.972;2023-05-09T00:10:43;101104.44;;;4.66;43.51
60087;BME280;45960;53.630;55.972;2023-05-09T00:11:44;101110.50;;;4.70;43.69
60087;BME280;45960;53.630;55.972;2023-05-09T00:12:45;101105.25;;;4.68;43.72
60087;BME280;45960;53.630;55.972;2023-05-09T00:13:47;101101.78;;;4.66;43.61
60087;BME280;45960;53.630;55.972;2023-05-09T00:14:49;101100.16;;;4.62;43.77
60087;BME280;45960;53.630;55.972;2023-05-09T00:15:51;101108.00;;;4.65;43.74
60087;BME280;45960;53.630;55.972;2023-05-09T00:16:57;101108.09;;;4.62;43.83
60087;BME280;45960;53.630;55.972;2023-05-09T00:17:58;101104.59;;;4.60;43.93
60087;BME280;45960;53.630;55.972;2023-05-09T00:19:00;101110.75;;;4.61;43.88
60087;BME280;45960;53.630;55.972;2023-05-09T00:20:01;101101.97;;;4.60;43.95
60087;BME280;45960;53.630;55.972;2023-05-09T00:21:10;101106.41;;;4.58;44.06
60087;BME280;45960;53.630;55.972;2023-05-09T00:22:12;101104.63;;;4.59;44.06
60087;BME280;45960;53.630;55.972;2023-05-09T00:23:13;101104.69;;;4.57;44.13
60087;BME280;45960;53.630;55.972;2023-05-09T00:24:14;101099.41;;;4.57;44.05
60087;BME280;45960;53.630;55.972;2023-05-09T00:25:15;101094.09;;;4.57;44.19
60087;BME280;45960;53.630;55.972;2023-05-09T00:26:16;101101.19;;;4.57;44.09
60087;BME280;45960;53.630;55.972;2023-05-09T00:27:18;101096.75;;;4.57;44.16
60087;BME280;45960;53.630;55.972;2023-05-09T00:28:19;101097.63;;;4.56;44.44
60087;BME280;45960;53.630;55.972;2023-05-09T00:29:20;101088.81;;;4.57;44.18
60087;BME280;45960;53.630;55.972;2023-05-09T00:30:21;101094.09;;;4.57;44.32
60087;BME280;45960;53.630;55.972;2023-05-09T00:31:22;101097.56;;;4.59;44.51
60087;BME280;45960;53.630;55.972;2023-05-09T00:32:23;101100.19;;;4.59;44.41
60087;BME280;45960;53.630;55.972;2023-05-09T00:33:26;101104.59;;;4.60;44.60
60087;BME280;45960;53.630;55.972;2023-05-09T00:34:27;101100.16;;;4.61;44.62
60087;BME280;45960;53.630;55.972;2023-05-09T00:35:28;101101.91;;;4.62;44.76
60087;BME280;45960;53.630;55.972;2023-05-09T00:36:29;101097.50;;;4.62;44.54
60087;BME280;45960;53.630;55.972;2023-05-09T00:37:31;101101.03;;;4.61;44.66
60087;BME280;45960;53.630;55.972;2023-05-09T00:38:32;101101.03;;;4.61;44.74
60087;BME280;45960;53.630;55.972;2023-05-09T00:39:34;101111.63;;;4.61;44.67
60087;BME280;45960;53.630;55.972;2023-05-09T00:40:35;101111.63;;;4.61;44.50
60087;BME280;45960;53.630;55.972;2023-05-09T00:41:36;101112.47;;;4.62;44.55
60087;BME280;45960;53.630;55.972;2023-05-09T00:42:37;101106.38;;;4.60;44.60
60087;BME280;45960;53.630;55.972;2023-05-09T00:43:38;101109.03;;;4.60;44.63
60087;BME280;45960;53.630;55.972;2023-05-09T00:44:39;101111.63;;;4.61;44.45
60087;BME280;45960;53.630;55.972;2023-05-09T00:45:42;101114.25;;;4.61;44.49
60087;BME280;45960;53.630;55.972;2023-05-09T00:46:43;101109.97;;;4.57;44.64
60087;BME280;45960;53.630;55.972;2023-05-09T00:47:45;101108.97;;;4.61;44.47
60087;BME280;45960;53.630;55.972;2023-05-09T00:48:46;101113.38;;;4.62;44.34
60087;BME280;45960;53.630;55.972;2023-05-09T00:49:47;101116.91;;;4.61;44.42
60087;BME280;45960;53.630;55.972;2023-05-09T00:50:48;101114.31;;;4.60;44.10
60087;BME280;45960;53.630;55.972;2023-05-09T00:51:54;101113.44;;;4.59;44.17
60087;BME280;45960;53.630;55.972;2023-05-09T00:52:55;101110.84;;;4.58;44.22
60087;BME280;45960;53.630;55.972;2023-05-09T00:53:57;101104.81;;;4.53;44.16
60087;BME280;45960;53.630;55.972;2023-05-09T00:54:59;101115.28;;;4.57;44.33
60087;BME280;45960;53.630;55.972;2023-05-09T00:56:01;101117.94;;;4.57;44.33
60087;BME280;45960;53.630;55.972;2023-05-09T00:57:02;101112.56;;;4.59;44.42
60087;BME280;45960;53.630;55.972;2023-05-09T00:58:03;101108.13;;;4.59;44.26
60087;BME280;45960;53.630;55.972;2023-05-09T00:59:04;101115.19;;;4.60;44.21
60087;BME280;45960;53.630;55.972;2023-05-09T01:00:06;101113.44;;;4.59;44.10
60087;BME280;45960;53.630;55.972;2023-05-09T01:01:12;101110.78;;;4.59;44.22
60087;BME280;45960;53.630;55.972;2023-05-09T01:02:16;101109.91;;;4.60;44.17
60087;BME280;45960;53.630;55.972;2023-05-09T01:03:17;101109.91;;;4.60;44.13
60087;BME280;45960;53.630;55.972;2023-05-09T01:04:19;101115.19;;;4.60;43.96
60087;BME280;45960;53.630;55.972;2023-05-09T01:05:21;101106.31;;;4.61;44.12
60087;BME280;45960;53.630;55.972;2023-05-09T01:06:35;101111.63;;;4.61;44.08
60087;BME280;45960;53.630;55.972;2023-05-09T01:07:56;101112.53;;;4.60;44.25
60087;BME280;45960;53.630;55.972;2023-05-09T01:10:34;101100.34;;;4.55;44.13
60087;BME280;45960;53.630;55.972;2023-05-09T01:15:57;101116.22;;;4.55;44.16
60087;BME280;45960;53.630;55.972;2023-05-09T01:17:25;101118.88;;;4.55;44.33
60087;BME280;45960;53.630;55.972;2023-05-09T01:19:00;101122.47;;;4.52;44.34
60087;BME280;45960;53.630;55.972;2023-05-09T01:21:47;101117.25;;;4.49;44.04
60087;BME280;45960;53.630;55.972;2023-05-09T01:22:59;101118.97;;;4.50;44.26
60087;BME280;45960;53.630;55.972;2023-05-09T01:24:38;101125.00;;;4.57;44.06
60087;BME280;45960;53.630;55.972;2023-05-09T01:26:19;101125.00;;;4.57;44.34
60087;BME280;45960;53.630;55.972;2023-05-09T01:27:36;101123.22;;;4.57;44.11
60087;BME280;45960;53.630;55.972;2023-05-09T01:30:08;101116.91;;;4.61;44.19
60087;BME280;45960;53.630;55.972;2023-05-09T01:31:10;101120.34;;;4.65;44.06
60087;BME280;45960;53.630;55.972;2023-05-09T01:32:16;101114.94;;;4.69;44.34
60087;BME280;45960;53.630;55.972;2023-05-09T01:33:20;101123.72;;;4.71;44.22
60087;BME280;45960;53.630;55.972;2023-05-09T01:34:25;101122.78;;;4.72;44.03
60087;BME280;45960;53.630;55.972;2023-05-09T01:35:28;101120.94;;;4.76;44.06
60087;BME280;45960;53.630;55.972;2023-05-09T01:36:33;101121.72;;;4.80;44.10
60087;BME280;45960;53.630;55.972;2023-05-09T01:37:41;101118.97;;;4.83;44.18
60087;BME280;45960;53.630;55.972;2023-05-09T01:38:44;101098.16;;;4.70;44.08
60087;BME280;45960;53.630;55.972;2023-05-09T01:39:52;101123.25;;;4.87;44.21
60087;BME280;45960;53.630;55.972;2023-05-09T01:40:57;101128.56;;;4.87;44.11
60087;BME280;45960;53.630;55.972;2023-05-09T01:42:03;101125.81;;;4.90;44.21
60087;BME280;45960;53.630;55.972;2023-05-09T01:43:08;101127.50;;;4.92;44.15
60087;BME280;45960;53.630;55.972;2023-05-09T01:44:12;101129.31;;;4.92;44.13
60087;BME280;45960;53.630;55.972;2023-05-09T01:45:14;101123.16;;;4.90;44.03
60087;BME280;45960;53.630;55.972;2023-05-09T01:46:18;101124.56;;;5.03;43.98
60087;BME280;45960;53.630;55.972;2023-05-09T01:47:21;101135.06;;;5.06;43.86
60087;BME280;45960;53.630;55.972;2023-05-09T01:48:23;101130.59;;;5.08;44.07
60087;BME280;45960;53.630;55.972;2023-05-09T01:49:31;101137.59;;;5.11;44.03
60087;BME280;45960;53.630;55.972;2023-05-09T01:50:34;101134.03;;;5.12;44.03
60087;BME280;45960;53.630;55.972;2023-05-09T01:51:36;101137.41;;;5.17;43.96
60087;BME280;45960;53.630;55.972;2023-05-09T01:52:41;101137.31;;;5.20;43.93
60087;BME280;45960;53.630;55.972;2023-05-09T01:53:44;101129.25;;;5.25;44.01
60087;BME280;45960;53.630;55.972;2023-05-09T01:54:49;101123.84;;;5.28;43.95
60087;BME280;45960;53.630;55.972;2023-05-09T01:55:53;101129.06;;;5.31;44.08
60087;BME280;45960;53.630;55.972;2023-05-09T01:56:55;101128.97;;;5.34;43.70
60087;BME280;45960;53.630;55.972;2023-05-09T01:57:58;101117.59;;;5.30;44.10
60087;BME280;45960;53.630;55.972;2023-05-09T01:59:01;101130.53;;;5.41;43.79
60087;BME280;45960;53.630;55.972;2023-05-09T02:00:04;101126.03;;;5.43;43.82
60087;BME280;45960;53.630;55.972;2023-05-09T02:01:15;101137.47;;;5.45;43.74
60087;BME280;45960;53.630;55.972;2023-05-09T02:02:16;101132.06;;;5.48;43.40
60087;BME280;45960;53.630;55.972;2023-05-09T02:03:18;101132.78;;;5.53;43.68
60087;BME280;45960;53.630;55.972;2023-05-09T02:04:19;101125.66;;;5.55;43.70
60087;BME280;45960;53.630;55.972;2023-05-09T02:05:25;101130.78;;;5.61;43.74
60087;BME280;45960;53.630;55.972;2023-05-09T02:06:27;101126.31;;;5.64;43.76
60087;BME280;45960;53.630;55.972;2023-05-09T02:07:32;101122.63;;;5.68;43.67
60087;BME280;45960;53.630;55.972;2023-05-09T02:08:34;101134.88;;;5.72;43.63
60087;BME280;45960;53.630;55.972;2023-05-09T02:09:35;101123.31;;;5.74;43.55
60087;BME280;45960;53.630;55.972;2023-05-09T02:10:36;101125.81;;;5.79;43.54
60087;BME280;45960;53.630;55.972;2023-05-09T02:11:40;101129.28;;;5.81;43.42
60087;BME280;45960;53.630;55.972;2023-05-09T02:12:41;101123.78;;;5.87;43.60
60087;BME280;45960;53.630;55.972;2023-05-09T02:13:42;101122.81;;;5.90;43.54
60087;BME280;45960;53.630;55.972;2023-05-09T02:14:43;101127.16;;;5.92;43.51
60087;BME280;45960;53.630;55.972;2023-05-09T02:15:45;101121.78;;;5.95;43.48
60087;BME280;45960;53.630;55.972;2023-05-09T02:16:47;101123.44;;;5.99;43.32
60087;BME280;45960;53.630;55.972;2023-05-09T02:17:48;101127.69;;;6.03;43.54
60087;BME280;45960;53.630;55.972;2023-05-09T02:18:49;101135.56;;;6.07;43.35
60087;BME280;45960;53.630;55.972;2023-05-09T02:19:52;101132.69;;;6.13;43.38
60087;BME280;45960;53.630;55.972;2023-05-09T02:20:53;101133.53;;;6.15;43.25
60087;BME280;45960;53.630;55.972;2023-05-09T02:21:54;101132.47;;;6.19;43.24
60087;BME280;45960;53.630;55.972;2023-05-09T02:22:55;101128.88;;;6.21;42.96
60087;BME280;45960;53.630;55.972;2023-05-09T02:23:57;101141.94;;;6.27;43.15
60087;BME280;45960;53.630;55.972;2023-05-09T02:24:58;101132.94;;;6.32;43.05
60087;BME280;45960;53.630;55.972;2023-05-09T02:26:01;101129.22;;;6.37;42.99
60087;BME280;45960;53.630;55.972;2023-05-09T02:27:03;101133.53;;;6.41;42.91
60087;BME280;45960;53.630;55.972;2023-05-09T02:28:06;101135.97;;;6.47;42.72
60087;BME280;45960;53.630;55.972;2023-05-09T02:29:09;101133.13;;;6.52;42.61
60087;BME280;45960;53.630;55.972;2023-05-09T02:30:14;101130.31;;;6.57;42.71
60087;BME280;45960;53.630;55.972;2023-05-09T02:31:19;101130.22;;;6.60;42.47
60087;BME280;45960;53.630;55.972;2023-05-09T02:32:26;101126.53;;;6.64;42.84
60087;BME280;45960;53.630;55.972;2023-05-09T02:33:29;101136.13;;;6.68;42.68
60087;BME280;45960;53.630;55.972;2023-05-09T02:34:31;101140.38;;;6.72;42.42
60087;BME280;45960;53.630;55.972;2023-05-09T02:35:33;101115.94;;;6.64;42.57
60087;BME280;45960;53.630;55.972;2023-05-09T02:36:35;101133.94;;;6.79;42.54
60087;BME280;45960;53.630;55.972;2023-05-09T02:37:37;101135.56;;;6.83;42.35
60087;BME280;45960;53.630;55.972;2023-05-09T02:38:39;101131.06;;;6.85;42.52
60087;BME280;45960;53.630;55.972;2023-05-09T02:39:41;101137.13;;;6.89;42.34
60087;BME280;45960;53.630;55.972;2023-05-09T02:40:42;101132.75;;;6.88;42.37
60087;BME280;45960;53.630;55.972;2023-05-09T02:41:47;101134.31;;;6.93;42.42
60087;BME280;45960;53.630;55.972;2023-05-09T02:42:49;101138.59;;;6.98;42.45
60087;BME280;45960;53.630;55.972;2023-05-09T02:43:50;101135.75;;;7.02;42.43
60087;BME280;45960;53.630;55.972;2023-05-09T02:44:52;101133.88;;;7.06;42.19
60087;BME280;45960;53.630;55.972;2023-05-09T02:45:53;101133.78;;;7.09;42.31
60087;BME280;45960;53.630;55.972;2023-05-09T02:46:54;101131.78;;;7.14;42.22
60087;BME280;45960;53.630;55.972;2023-05-09T02:47:55;101128.22;;;7.15;42.21
60087;BME280;45960;53.630;55.972;2023-05-09T02:48:57;101133.28;;;7.21;42.29
60087;BME280;45960;53.630;55.972;2023-05-09T02:49:58;101134.16;;;7.22;42.10
60087;BME280;45960;53.630;55.972;2023-05-09T02:51:00;101127.16;;;7.19;42.14
60087;BME280;45960;53.630;55.972;2023-05-09T02:52:01;101138.25;;;7.30;42.08
60087;BME280;45960;53.630;55.972;2023-05-09T02:53:02;101142.53;;;7.34;42.04
60087;BME280;45960;53.630;55.972;2023-05-09T02:54:04;101136.16;;;7.38;41.99
60087;BME280;45960;53.630;55.972;2023-05-09T02:55:06;101142.22;;;7.42;41.75
60087;BME280;45960;53.630;55.972;2023-05-09T02:56:11;101141.25;;;7.45;42.11
60087;BME280;45960;53.630;55.972;2023-05-09T02:57:12;101139.28;;;7.50;41.95
60087;BME280;45960;53.630;55.972;2023-05-09T02:58:13;101142.63;;;7.55;42.06
60087;BME280;45960;53.630;55.972;2023-05-09T02:59:14;101144.16;;;7.62;41.64
60087;BME280;45960;53.630;55.972;2023-05-09T03:00:16;101145.75;;;7.66;41.79
60087;BME280;45960;53.630;55.972;2023-05-09T03:01:17;101136.72;;;7.70;41.90
60087;BME280;45960;53.630;55.972;2023-05-09T03:02:19;101136.47;;;7.76;41.90
60087;BME280;45960;53.630;55.972;2023-05-09T03:03:21;101140.81;;;7.79;41.68
60087;BME280;45960;53.630;55.972;2023-05-09T03:04:23;101141.56;;;7.82;41.70
60087;BME280;45960;53.630;55.972;2023-05-09T03:05:28;101147.56;;;7.88;41.38
60087;BME280;45960;53.630;55.972;2023-05-09T03:06:29;101144.69;;;7.92;41.66
60087;BME280;45960;53.630;55.972;2023-05-09T03:07:30;101142.78;;;7.96;41.47
60087;BME280;45960;53.630;55.972;2023-05-09T03:08:32;101143.56;;;7.98;41.59
60087;BME280;45960;53.630;55.972;2023-05-09T03:09:33;101147.88;;;8.02;41.28
60087;BME280;45960;53.630;55.972;2023-05-09T03:10:35;101143.28;;;8.05;41.31
60087;BME280;45960;53.630;55.972;2023-05-09T03:11:37;101147.47;;;8.11;41.25
60087;BME280;45960;53.630;55.972;2023-05-09T03:12:38;101145.50;;;8.16;41.07
60087;BME280;45960;53.630;55.972;2023-05-09T03:13:40;101144.38;;;8.22;40.92
60087;BME280;45960;53.630;55.972;2023-05-09T03:14:41;101143.13;;;8.30;41.02
60087;BME280;45960;53.630;55.972;2023-05-09T03:15:42;101151.78;;;8.36;40.78
60087;BME280;45960;53.630;55.972;2023-05-09T03:16:45;101142.63;;;8.43;40.68
60087;BME280;45960;53.630;55.972;2023-05-09T03:17:55;101147.72;;;8.49;40.48
60087;BME280;45960;53.630;55.972;2023-05-09T03:18:56;101149.16;;;8.56;40.17
60087;BME280;45960;53.630;55.972;2023-05-09T03:19:57;101150.66;;;8.63;40.08
60087;BME280;45960;53.630;55.972;2023-05-09T03:20:58;101146.78;;;8.70;39.80
60087;BME280;45960;53.630;55.972;2023-05-09T03:22:00;101150.97;;;8.76;39.78
60087;BME280;45960;53.630;55.972;2023-05-09T03:23:02;101150.72;;;8.82;39.65
60087;BME280;45960;53.630;55.972;2023-05-09T03:24:05;101153.97;;;8.89;39.18
60087;BME280;45960;53.630;55.972;2023-05-09T03:25:07;101150.16;;;8.94;39.29
60087;BME280;45960;53.630;55.972;2023-05-09T03:26:09;101152.50;;;9.02;39.27
60087;BME280;45960;53.630;55.972;2023-05-09T03:27:10;101145.13;;;9.07;39.20
60087;BME280;45960;53.630;55.972;2023-05-09T03:28:11;101151.06;;;9.14;39.11
60087;BME280;45960;53.630;55.972;2023-05-09T03:29:13;101148.94;;;9.22;38.84
60087;BME280;45960;53.630;55.972;2023-05-09T03:30:14;101147.69;;;9.29;39.14
60087;BME280;45960;53.630;55.972;2023-05-09T03:31:17;101152.69;;;9.37;38.99
60087;BME280;45960;53.630;55.972;2023-05-09T03:32:18;101144.38;;;9.43;38.67
60087;BME280;45960;53.630;55.972;2023-05-09T03:33:19;101144.19;;;9.48;38.44
60087;BME280;45960;53.630;55.972;2023-05-09T03:34:21;101147.50;;;9.53;38.23
60087;BME280;45960;53.630;55.972;2023-05-09T03:35:22;101099.47;;;9.34;38.22
60087;BME280;45960;53.630;55.972;2023-05-09T03:36:24;101146.19;;;9.61;37.96
60087;BME280;45960;53.630;55.972;2023-05-09T03:37:25;101149.66;;;9.63;38.02
60087;BME280;45960;53.630;55.972;2023-05-09T03:38:26;101140.56;;;9.68;37.81
60087;BME280;45960;53.630;55.972;2023-05-09T03:39:27;101145.59;;;9.74;37.77
60087;BME280;45960;53.630;55.972;2023-05-09T03:40:30;101145.31;;;9.80;37.72
60087;BME280;45960;53.630;55.972;2023-05-09T03:41:39;101148.63;;;9.85;37.51
60087;BME280;45960;53.630;55.972;2023-05-09T03:42:42;101148.31;;;9.91;37.62
60087;BME280;45960;53.630;55.972;2023-05-09T03:43:44;101152.38;;;10.00;37.41
60087;BME280;45960;53.630;55.972;2023-05-09T03:44:46;101146.72;;;10.06;37.24
60087;BME280;45960;53.630;55.972;2023-05-09T03:45:47;101149.31;;;10.07;37.06
60087;BME280;45960;53.630;55.972;2023-05-09T03:46:49;101157.97;;;10.13;37.17
60087;BME280;45960;53.630;55.972;2023-05-09T03:47:50;101155.78;;;10.21;37.19
60087;BME280;45960;53.630;55.972;2023-05-09T03:48:52;101147.53;;;10.25;37.24
60087;BME280;45960;53.630;55.972;2023-05-09T03:49:53;101151.75;;;10.31;36.84
60087;BME280;45960;53.630;55.972;2023-05-09T03:50:57;101146.09;;;10.37;36.78
60087;BME280;45960;53.630;55.972;2023-05-09T03:52:02;101146.56;;;10.45;36.83
60087;BME280;45960;53.630;55.972;2023-05-09T03:53:03;101143.50;;;10.53;36.73
60087;BME280;45960;53.630;55.972;2023-05-09T03:54:04;101145.69;;;10.62;36.52
60087;BME280;45960;53.630;55.972;2023-05-09T03:55:06;101141.00;;;10.67;36.04
60087;BME280;45960;53.630;55.972;2023-05-09T03:56:09;101150.34;;;10.76;36.51
60087;BME280;45960;53.630;55.972;2023-05-09T03:57:18;101147.50;;;10.79;36.12
60087;BME280;45960;53.630;55.972;2023-05-09T03:58:22;101149.91;;;10.84;35.82
60087;BME280;45960;53.630;55.972;2023-05-09T03:59:23;101147.97;;;10.87;36.07
60087;BME280;45960;53.630;55.972;2023-05-09T04:00:25;101144.09;;;10.93;36.00
60087;BME280;45960;53.630;55.972;2023-05-09T04:01:38;101149.19;;;10.97;35.57
60087;BME280;45960;53.630;55.972;2023-05-09T04:02:40;101137.28;;;11.03;35.69
60087;BME280;45960;53.630;55.972;2023-05-09T04:03:44;101142.25;;;11.11;35.54
60087;BME280;45960;53.630;55.972;2023-05-09T04:04:47;101147.09;;;11.20;35.44
60087;BME280;45960;53.630;55.972;2023-05-09T04:05:53;101144.88;;;11.28;35.55
60087;BME280;45960;53.630;55.972;2023-05-09T04:07:05;101140.22;;;11.32;35.39
60087;BME280;45960;53.630;55.972;2023-05-09T04:08:07;101143.50;;;11.37;35.19
60087;BME280;45960;53.630;55.972;2023-05-09T04:09:08;101148.44;;;11.45;35.15
60087;BME280;45960;53.630;55.972;2023-05-09T04:10:10;101144.47;;;11.52;35.09
60087;BME280;45960;53.630;55.972;2023-05-09T04:11:11;101142.31;;;11.58;34.99
60087;BME280;45960;53.630;55.972;2023-05-09T04:12:16;101142.84;;;11.65;34.89
60087;BME280;45960;53.630;55.972;2023-05-09T04:13:17;101142.50;;;11.71;34.77
60087;BME280;45960;53.630;55.972;2023-05-09T04:14:19;101140.50;;;11.75;34.43
60087;BME280;45960;53.630;55.972;2023-05-09T04:15:20;101142.66;;;11.84;34.38
60087;BME280;45960;53.630;55.972;2023-05-09T04:16:21;101149.50;;;11.90;34.40
60087;BME280;45960;53.630;55.972;2023-05-09T04:17:23;101139.41;;;11.95;34.22
60087;BME280;45960;53.630;55.972;2023-05-09T04:18:24;101148.91;;;12.00;34.18
60087;BME280;45960;53.630;55.972;2023-05-09T04:19:25;101143.38;;;12.03;34.23
60087;BME280;45960;53.630;55.972;2023-05-09T04:20:26;101142.84;;;12.13;34.15
60087;BME280;45960;53.630;55.972;2023-05-09T04:21:28;101141.78;;;12.15;34.20
60087;BME280;45960;53.630;55.972;2023-05-09T04:22:33;101143.19;;;12.22;33.90
60087;BME280;45960;53.630;55.972;2023-05-09T04:23:34;101144.72;;;12.26;33.60
60087;BME280;45960;53.630;55.972;2023-05-09T04:24:35;101145.22;;;12.33;33.82
60087;BME280;45960;53.630;55.972;2023-05-09T04:25:36;101141.31;;;12.39;33.70
60087;BME280;45960;53.630;55.972;2023-05-09T04:26:37;101144.22;;;12.50;33.50
60087;BME280;45960;53.630;55.972;2023-05-09T04:27:41;101149.03;;;12.59;33.42
60087;BME280;45960;53.630;55.972;2023-05-09T04:28:42;101151.53;;;12.62;33.18
60087;BME280;45960;53.630;55.972;2023-05-09T04:29:45;101148.66;;;12.65;32.95
60087;BME280;45960;53.630;55.972;2023-05-09T04:30:46;101150.13;;;12.71;33.02
60087;BME280;45960;53.630;55.972;2023-05-09T04:31:47;101153.38;;;12.76;32.91
60087;BME280;45960;53.630;55.972;2023-05-09T04:32:49;101150.44;;;12.81;32.75
60087;BME280;45960;53.630;55.972;2023-05-09T04:33:50;101152.94;;;12.84;32.77
60087;BME280;45960;53.630;55.972;2023-05-09T04:34:52;101150.91;;;12.87;32.79
60087;BME280;45960;53.630;55.972;2023-05-09T04:35:58;101149.88;;;12.90;32.47
60087;BME280;45960;53.630;55.972;2023-05-09T04:36:59;101149.47;;;12.96;32.58
60087;BME280;45960;53.630;55.972;2023-05-09T04:38:00;101147.38;;;13.01;32.13
60087;BME280;45960;53.630;55.972;2023-05-09T04:39:02;101147.13;;;13.06;32.09
60087;BME280;45960;53.630;55.972;2023-05-09T04:40:05;101144.91;;;13.12;32.27
60087;BME280;45960;53.630;55.972;2023-05-09T04:41:14;101145.47;;;13.17;32.23
60087;BME280;45960;53.630;55.972;2023-05-09T04:42:16;101149.50;;;13.25;32.06
60087;BME280;45960;53.630;55.972;2023-05-09T04:43:17;101142.81;;;13.32;32.10
60087;BME280;45960;53.630;55.972;2023-05-09T04:44:18;101146.88;;;13.39;32.27
60087;BME280;45960;53.630;55.972;2023-05-09T04:45:19;101138.22;;;13.48;32.19
60087;BME280;45960;53.630;55.972;2023-05-09T04:46:21;101136.84;;;13.55;32.09
60087;BME280;45960;53.630;55.972;2023-05-09T04:47:22;101133.69;;;13.63;31.87
60087;BME280;45960;53.630;55.972;2023-05-09T04:48:23;101136.72;;;13.71;31.67
60087;BME280;45960;53.630;55.972;2023-05-09T04:49:24;101141.41;;;13.82;31.50
60087;BME280;45960;53.630;55.972;2023-05-09T04:50:26;101129.50;;;13.86;31.47
60087;BME280;45960;53.630;55.972;2023-05-09T04:51:27;101137.91;;;13.94;31.21
60087;BME280;45960;53.630;55.972;2023-05-09T04:52:29;101133.88;;;14.01;30.88
60087;BME280;45960;53.630;55.972;2023-05-09T04:53:30;101138.84;;;14.07;30.90
60087;BME280;45960;53.630;55.972;2023-05-09T04:54:32;101140.38;;;14.12;30.88
60087;BME280;45960;53.630;55.972;2023-05-09T04:55:33;101141.66;;;14.19;30.74
60087;BME280;45960;53.630;55.972;2023-05-09T04:56:35;101139.34;;;14.27;30.69
60087;BME280;45960;53.630;55.972;2023-05-09T04:57:36;101133.34;;;14.36;30.81
60087;BME280;45960;53.630;55.972;2023-05-09T04:58:38;101135.41;;;14.45;30.70
60087;BME280;45960;53.630;55.972;2023-05-09T04:59:43;101144.81;;;14.52;30.57
60087;BME280;45960;53.630;55.972;2023-05-09T05:00:47;101149.75;;;14.59;30.47
60087;BME280;45960;53.630;55.972;2023-05-09T05:01:50;101142.03;;;14.67;30.12
60087;BME280;45960;53.630;55.972;2023-05-09T05:02:51;101141.72;;;14.71;29.88
60087;BME280;45960;53.630;55.972;2023-05-09T05:03:53;101143.22;;;14.75;29.72
60087;BME280;45960;53.630;55.972;2023-05-09T05:04:54;101142.91;;;14.80;29.49
60087;BME280;45960;53.630;55.972;2023-05-09T05:05:55;101147.88;;;14.86;29.54
60087;BME280;45960;53.630;55.972;2023-05-09T05:06:56;101137.56;;;14.93;29.28
60087;BME280;45960;53.630;55.972;2023-05-09T05:07:57;101142.59;;;14.97;29.24
60087;BME280;45960;53.630;55.972;2023-05-09T05:09:04;101130.66;;;15.02;29.24
60087;BME280;45960;53.630;55.972;2023-05-09T05:10:06;101142.72;;;15.09;28.86
60087;BME280;45960;53.630;55.972;2023-05-09T05:11:07;101141.53;;;15.13;29.03
60087;BME280;45960;53.630;55.972;2023-05-09T05:12:09;101136.69;;;15.18;28.77
60087;BME280;45960;53.630;55.972;2023-05-09T05:13:10;101141.63;;;15.24;28.56
60087;BME280;45960;53.630;55.972;2023-05-09T05:14:15;101139.47;;;15.29;28.78
60087;BME280;45960;53.630;55.972;2023-05-09T05:15:16;101140.00;;;15.34;28.56
60087;BME280;45960;53.630;55.972;2023-05-09T05:16:20;101132.44;;;15.39;28.23
60087;BME280;45960;53.630;55.972;2023-05-09T05:17:22;101136.44;;;15.47;28.12
60087;BME280;45960;53.630;55.972;2023-05-09T05:18:25;101143.84;;;15.56;28.15
60087;BME280;45960;53.630;55.972;2023-05-09T05:19:26;101133.38;;;15.64;28.42
60087;BME280;45960;53.630;55.972;2023-05-09T05:20:27;101130.78;;;15.75;28.30
60087;BME280;45960;53.630;55.972;2023-05-09T05:21:28;101139.16;;;15.83;27.96
60087;BME280;45960;53.630;55.972;2023-05-09T05:22:29;101131.59;;;15.88;27.53
60087;BME280;45960;53.630;55.972;2023-05-09T05:23:30;101137.53;;;15.94;27.63
60087;BME280;45960;53.630;55.972;2023-05-09T05:24:31;101141.22;;;16.04;27.80
60087;BME280;45960;53.630;55.972;2023-05-09T05:25:33;101137.13;;;16.11;27.38
60087;BME280;45960;53.630;55.972;2023-05-09T05:26:35;101138.38;;;16.18;27.18
60087;BME280;45960;53.630;55.972;2023-05-09T05:27:36;101141.34;;;16.26;27.19
60087;BME280;45960;53.630;55.972;2023-05-09T05:28:38;101137.22;;;16.33;27.24
60087;BME280;45960;53.630;55.972;2023-05-09T05:29:40;101144.75;;;16.41;27.04
60087;BME280;45960;53.630;55.972;2023-05-09T05:30:41;101140.47;;;16.50;26.91
60087;BME280;45960;53.630;55.972;2023-05-09T05:31:43;101142.69;;;16.56;26.67
60087;BME280;45960;53.630;55.972;2023-05-09T05:32:44;101139.75;;;16.59;26.40
60087;BME280;45960;53.630;55.972;2023-05-09T05:33:46;101143.22;;;16.61;26.32
60087;BME280;45960;53.630;55.972;2023-05-09T05:34:48;101146.63;;;16.63;26.21
60087;BME280;45960;53.630;55.972;2023-05-09T05:35:49;101150.81;;;16.67;26.17